sensor_id;sensor_type;location;lat;lon;timestamp;temperature;humidity
14144;DHT22;7152;48.348;10.980;2022-12-07T00:01:40;3.60;99.90
14144;DHT22;7152;48.348;10.980;2022-12-07T00:04:09;3.60;99.90
14144;DHT22;7152;48.348;10.980;2022-12-07T00:06:43;3.60;99.90
14144;DHT22;7152;48.348;10.980;2022-12-07T00:09:15;3.60;99.90
14144;DHT22;7152;48.348;10.980;2022-12-07T00:11:40;3.60;99.90
14144;DHT22;7152;48.348;10.980;2022-12-07T00:14:09;3.70;99.90
14144;DHT22;7152;48.348;10.980;2022-12-07T00:16:35;3.70;99.90
14144;DHT22;7152;48.348;10.980;2022-12-07T00:19:02;3.80;99.90
14144;DHT22;7152;48.348;10.980;2022-12-07T00:21:30;3.60;99.90
14144;DHT22;7152;48.348;10.980;2022-12-07T00:23:57;3.70;99.90
14144;DHT22;7152;48.348;10.980;2022-12-07T00:26:27;3.60;99.90
14144;DHT22;7152;48.348;10.980;2022-12-07T00:28:58;3.60;99.90
14144;DHT22;7152;48.348;10.980;2022-12-07T00:31:26;3.60;99.90
14144;DHT22;7152;48.348;10.980;2022-12-07T00:33:52;3.60;99.90
14144;DHT22;7152;48.348;10.980;2022-12-07T00:36:21;3.60;99.90
14144;DHT22;7152;48.348;10.980;2022-12-07T00:38:47;3.60;99.90
14144;DHT22;7152;48.348;10.980;2022-12-07T00:41:21;3.60;99.90
14144;DHT22;7152;48.348;10.980;2022-12-07T00:43:47;3.60;99.90
14144;DHT22;7152;48.348;10.980;2022-12-07T00:46:14;3.60;99.90
14144;DHT22;7152;48.348;10.980;2022-12-07T00:48:41;3.60;99.90
14144;DHT22;7152;48.348;10.980;2022-12-07T00:51:07;3.60;99.90
14144;DHT22;7152;48.348;10.980;2022-12-07T00:53:36;3.50;99.90
14144;DHT22;7152;48.348;10.980;2022-12-07T00:56:11;3.40;99.90
14144;DHT22;7152;48.348;10.980;2022-12-07T00:58:37;3.40;99.90
14144;DHT22;7152;48.348;10.980;2022-12-07T01:01:04;3.40;99.90
14144;DHT22;7152;48.348;10.980;2022-12-07T01:03:30;3.40;99.90
14144;DHT22;7152;48.348;10.980;2022-12-07T01:05:56;3.40;99.90
14144;DHT22;7152;48.348;10.980;2022-12-07T01:08:23;3.40;99.90
14144;DHT22;7152;48.348;10.980;2022-12-07T01:11:02;3.40;99.90
14144;DHT22;7152;48.348;10.980;2022-12-07T01:13:29;3.40;99.90
14144;DHT22;7152;48.348;10.980;2022-12-07T01:16:00;3.40;99.90
14144;DHT22;7152;48.348;10.980;2022-12-07T01:18:30;3.40;99.90
14144;DHT22;7152;48.348;10.980;2022-12-07T01:23:26;3.40;99.90
14144;DHT22;7152;48.348;10.980;2022-12-07T01:25:57;3.30;99.90
14144;DHT22;7152;48.348;10.980;2022-12-07T01:28:24;3.40;99.90
14144;DHT22;7152;48.348;10.980;2022-12-07T01:31:04;3.40;99.90
14144;DHT22;7152;48.348;10.980;2022-12-07T01:33:34;3.40;99.90
14144;DHT22;7152;48.348;10.980;2022-12-07T01:36:25;3.40;99.90
14144;DHT22;7152;48.348;10.980;2022-12-07T01:38:56;3.40;99.90
14144;DHT22;7152;48.348;10.980;2022-12-07T01:41:23;3.40;99.90
14144;DHT22;7152;48.348;10.980;2022-12-07T01:44:29;3.40;99.90
14144;DHT22;7152;48.348;10.980;2022-12-07T01:47:02;3.30;99.90
14144;DHT22;7152;48.348;10.980;2022-12-07T01:49:37;3.30;99.90
14144;DHT22;7152;48.348;10.980;2022-12-07T01:54:53;3.30;99.90
14144;DHT22;7152;48.348;10.980;2022-12-07T01:57:20;3.30;99.90
14144;DHT22;7152;48.348;10.980;2022-12-07T01:59:49;3.40;99.90
14144;DHT22;7152;48.348;10.980;2022-12-07T02:02:33;3.40;99.90
14144;DHT22;7152;48.348;10.980;2022-12-07T02:05:00;3.30;99.90
14144;DHT22;7152;48.348;10.980;2022-12-07T02:07:27;3.30;99.90
14144;DHT22;7152;48.348;10.980;2022-12-07T02:09:53;3.30;99.90
14144;DHT22;7152;48.348;10.980;2022-12-07T02:12:20;3.40;99.90
14144;DHT22;7152;48.348;10.980;2022-12-07T02:14:46;3.30;99.90
14144;DHT22;7152;48.348;10.980;2022-12-07T02:17:24;3.30;99.90
14144;DHT22;7152;48.348;10.980;2022-12-07T02:20:11;3.30;99.90
14144;DHT22;7152;48.348;10.980;2022-12-07T02:26:29;3.30;99.90
14144;DHT22;7152;48.348;10.980;2022-12-07T02:31:32;3.30;99.90
14144;DHT22;7152;48.348;10.980;2022-12-07T02:34:08;3.30;99.90
14144;DHT22;7152;48.348;10.980;2022-12-07T02:36:39;3.30;99.90
14144;DHT22;7152;48.348;10.980;2022-12-07T02:39:17;3.20;99.90
14144;DHT22;7152;48.348;10.980;2022-12-07T02:41:49;3.20;99.90
14144;DHT22;7152;48.348;10.980;2022-12-07T02:44:19;3.20;99.90
14144;DHT22;7152;48.348;10.980;2022-12-07T02:47:03;3.20;99.90
14144;DHT22;7152;48.348;10.980;2022-12-07T02:49:30;3.20;99.90
14144;DHT22;7152;48.348;10.980;2022-12-07T02:51:56;3.30;99.90
14144;DHT22;7152;48.348;10.980;2022-12-07T02:54:22;3.20;99.90
14144;DHT22;7152;48.348;10.980;2022-12-07T03:16:09;3.30;99.90
14144;DHT22;7152;48.348;10.980;2022-12-07T03:18:43;3.40;99.90
14144;DHT22;7152;48.348;10.980;2022-12-07T03:21:14;3.30;99.90
14144;DHT22;7152;48.348;10.980;2022-12-07T03:23:44;3.30;99.90
14144;DHT22;7152;48.348;10.980;2022-12-07T03:26:12;3.30;99.90
14144;DHT22;7152;48.348;10.980;2022-12-07T03:28:44;3.20;99.90
14144;DHT22;7152;48.348;10.980;2022-12-07T03:31:19;3.30;99.90
14144;DHT22;7152;48.348;10.980;2022-12-07T03:33:59;3.30;99.90
14144;DHT22;7152;48.348;10.980;2022-12-07T03:36:39;3.30;99.90
14144;DHT22;7152;48.348;10.980;2022-12-07T03:41:55;3.30;99.90
14144;DHT22;7152;48.348;10.980;2022-12-07T03:44:22;3.40;99.90
14144;DHT22;7152;48.348;10.980;2022-12-07T03:49:32;3.30;99.90
14144;DHT22;7152;48.348;10.980;2022-12-07T03:52:12;3.30;99.90
14144;DHT22;7152;48.348;10.980;2022-12-07T03:55:04;3.20;99.90
14144;DHT22;7152;48.348;10.980;2022-12-07T03:57:33;3.20;99.90
14144;DHT22;7152;48.348;10.980;2022-12-07T03:59:59;3.20;99.90
14144;DHT22;7152;48.348;10.980;2022-12-07T04:02:27;3.20;99.90
14144;DHT22;7152;48.348;10.980;2022-12-07T04:04:53;3.30;99.90
14144;DHT22;7152;48.348;10.980;2022-12-07T04:07:19;3.30;99.90
14144;DHT22;7152;48.348;10.980;2022-12-07T04:09:44;3.10;99.90
14144;DHT22;7152;48.348;10.980;2022-12-07T04:12:10;3.10;99.90
14144;DHT22;7152;48.348;10.980;2022-12-07T04:14:36;3.20;99.90
14144;DHT22;7152;48.348;10.980;2022-12-07T04:17:01;3.10;99.90
14144;DHT22;7152;48.348;10.980;2022-12-07T04:19:30;3.10;99.90
14144;DHT22;7152;48.348;10.980;2022-12-07T04:21:58;3.10;99.90
14144;DHT22;7152;48.348;10.980;2022-12-07T04:24:24;3.10;99.90
14144;DHT22;7152;48.348;10.980;2022-12-07T04:26:50;3.10;99.90
14144;DHT22;7152;48.348;10.980;2022-12-07T04:29:17;3.10;99.90
14144;DHT22;7152;48.348;10.980;2022-12-07T04:31:43;3.10;99.90
14144;DHT22;7152;48.348;10.980;2022-12-07T04:34:09;3.10;99.90
14144;DHT22;7152;48.348;10.980;2022-12-07T04:36:36;3.00;99.90
14144;DHT22;7152;48.348;10.980;2022-12-07T04:39:03;3.00;99.90
14144;DHT22;7152;48.348;10.980;2022-12-07T04:41:28;3.00;99.90
14144;DHT22;7152;48.348;10.980;2022-12-07T04:44:02;3.00;99.90
14144;DHT22;7152;48.348;10.980;2022-12-07T04:46:29;3.10;99.90
14144;DHT22;7152;48.348;10.980;2022-12-07T04:48:56;3.00;99.90
14144;DHT22;7152;48.348;10.980;2022-12-07T04:51:24;3.00;99.90
14144;DHT22;7152;48.348;10.980;2022-12-07T04:53:50;3.00;99.90
14144;DHT22;7152;48.348;10.980;2022-12-07T04:56:17;3.00;99.90
14144;DHT22;7152;48.348;10.980;2022-12-07T04:58:44;3.00;99.90
14144;DHT22;7152;48.348;10.980;2022-12-07T05:01:10;3.00;99.90
14144;DHT22;7152;48.348;10.980;2022-12-07T05:03:36;3.00;99.90
14144;DHT22;7152;48.348;10.980;2022-12-07T05:06:02;3.00;99.90
14144;DHT22;7152;48.348;10.980;2022-12-07T05:08:28;3.00;99.90
14144;DHT22;7152;48.348;10.980;2022-12-07T05:10:53;3.00;99.90
14144;DHT22;7152;48.348;10.980;2022-12-07T05:13:19;3.00;99.90
14144;DHT22;7152;48.348;10.980;2022-12-07T05:15:46;3.00;99.90
14144;DHT22;7152;48.348;10.980;2022-12-07T05:18:12;3.00;99.90
14144;DHT22;7152;48.348;10.980;2022-12-07T05:20:41;2.90;99.90
14144;DHT22;7152;48.348;10.980;2022-12-07T05:23:08;2.90;99.90
14144;DHT22;7152;48.348;10.980;2022-12-07T05:25:33;2.90;99.90
14144;DHT22;7152;48.348;10.980;2022-12-07T05:27:59;2.90;99.90
14144;DHT22;7152;48.348;10.980;2022-12-07T05:30:25;2.90;99.90
14144;DHT22;7152;48.348;10.980;2022-12-07T05:32:52;2.90;99.90
14144;DHT22;7152;48.348;10.980;2022-12-07T05:35:18;2.80;99.90
14144;DHT22;7152;48.348;10.980;2022-12-07T05:37:44;2.80;99.90
14144;DHT22;7152;48.348;10.980;2022-12-07T05:40:11;2.80;99.90
14144;DHT22;7152;48.348;10.980;2022-12-07T05:42:37;2.80;99.90
14144;DHT22;7152;48.348;10.980;2022-12-07T05:45:03;2.80;99.90
14144;DHT22;7152;48.348;10.980;2022-12-07T05:47:29;2.80;99.90
14144;DHT22;7152;48.348;10.980;2022-12-07T05:49:55;2.80;99.90
14144;DHT22;7152;48.348;10.980;2022-12-07T05:52:21;2.80;99.90
14144;DHT22;7152;48.348;10.980;2022-12-07T05:54:47;2.80;99.90
14144;DHT22;7152;48.348;10.980;2022-12-07T05:57:13;2.70;99.90
14144;DHT22;7152;48.348;10.980;2022-12-07T05:59:38;2.80;99.90
14144;DHT22;7152;48.348;10.980;2022-12-07T06:02:13;2.70;99.90
14144;DHT22;7152;48.348;10.980;2022-12-07T06:04:42;2.70;99.90
14144;DHT22;7152;48.348;10.980;2022-12-07T06:07:08;2.60;99.90
14144;DHT22;7152;48.348;10.980;2022-12-07T06:09:35;2.60;99.90
14144;DHT22;7152;48.348;10.980;2022-12-07T06:12:01;2.60;99.90
14144;DHT22;7152;48.348;10.980;2022-12-07T06:14:46;2.50;99.90
14144;DHT22;7152;48.348;10.980;2022-12-07T06:17:12;2.40;99.90
14144;DHT22;7152;48.348;10.980;2022-12-07T06:19:38;2.40;99.90
14144;DHT22;7152;48.348;10.980;2022-12-07T06:22:04;2.40;99.90
14144;DHT22;7152;48.348;10.980;2022-12-07T06:24:30;2.40;99.90
14144;DHT22;7152;48.348;10.980;2022-12-07T06:26:56;2.40;99.90
14144;DHT22;7152;48.348;10.980;2022-12-07T06:29:22;2.40;99.90
14144;DHT22;7152;48.348;10.980;2022-12-07T06:31:47;2.40;99.90
14144;DHT22;7152;48.348;10.980;2022-12-07T06:34:16;2.30;99.90
14144;DHT22;7152;48.348;10.980;2022-12-07T06:36:42;2.40;99.90
14144;DHT22;7152;48.348;10.980;2022-12-07T06:39:08;2.30;99.90
14144;DHT22;7152;48.348;10.980;2022-12-07T06:41:38;2.20;99.90
14144;DHT22;7152;48.348;10.980;2022-12-07T06:44:05;2.20;99.90
14144;DHT22;7152;48.348;10.980;2022-12-07T06:46:31;2.30;99.90
14144;DHT22;7152;48.348;10.980;2022-12-07T06:48:57;2.20;99.90
14144;DHT22;7152;48.348;10.980;2022-12-07T06:51:22;2.30;99.90
14144;DHT22;7152;48.348;10.980;2022-12-07T06:53:48;2.20;99.90
14144;DHT22;7152;48.348;10.980;2022-12-07T06:56:14;2.20;99.90
14144;DHT22;7152;48.348;10.980;2022-12-07T06:58:40;2.20;99.90
14144;DHT22;7152;48.348;10.980;2022-12-07T07:01:10;2.20;99.90
14144;DHT22;7152;48.348;10.980;2022-12-07T07:03:36;2.20;99.90
14144;DHT22;7152;48.348;10.980;2022-12-07T07:06:02;2.10;99.90
14144;DHT22;7152;48.348;10.980;2022-12-07T07:08:27;2.10;99.90
14144;DHT22;7152;48.348;10.980;2022-12-07T07:10:53;2.10;99.90
14144;DHT22;7152;48.348;10.980;2022-12-07T07:13:18;2.10;99.90
14144;DHT22;7152;48.348;10.980;2022-12-07T07:15:44;2.10;99.90
14144;DHT22;7152;48.348;10.980;2022-12-07T07:18:10;2.00;99.90
14144;DHT22;7152;48.348;10.980;2022-12-07T07:20:36;2.10;99.90
14144;DHT22;7152;48.348;10.980;2022-12-07T07:23:02;2.10;99.90
14144;DHT22;7152;48.348;10.980;2022-12-07T07:25:27;2.10;99.90
14144;DHT22;7152;48.348;10.980;2022-12-07T07:27:53;2.10;99.90
14144;DHT22;7152;48.348;10.980;2022-12-07T07:30:19;2.20;99.90
14144;DHT22;7152;48.348;10.980;2022-12-07T07:32:45;2.00;99.90
14144;DHT22;7152;48.348;10.980;2022-12-07T07:35:10;2.10;99.90
14144;DHT22;7152;48.348;10.980;2022-12-07T07:37:36;2.00;99.90
14144;DHT22;7152;48.348;10.980;2022-12-07T07:40:01;2.20;99.90
14144;DHT22;7152;48.348;10.980;2022-12-07T07:42:27;2.10;99.90
14144;DHT22;7152;48.348;10.980;2022-12-07T07:44:53;2.10;99.90
14144;DHT22;7152;48.348;10.980;2022-12-07T07:47:18;2.10;99.90
14144;DHT22;7152;48.348;10.980;2022-12-07T07:49:44;2.10;99.90
14144;DHT22;7152;48.348;10.980;2022-12-07T07:52:10;2.10;99.90
14144;DHT22;7152;48.348;10.980;2022-12-07T07:54:35;2.20;99.90
14144;DHT22;7152;48.348;10.980;2022-12-07T07:57:01;2.20;99.90
14144;DHT22;7152;48.348;10.980;2022-12-07T07:59:27;2.20;99.90
14144;DHT22;7152;48.348;10.980;2022-12-07T08:01:52;2.20;99.90
14144;DHT22;7152;48.348;10.980;2022-12-07T08:04:18;2.30;99.90
14144;DHT22;7152;48.348;10.980;2022-12-07T08:06:44;2.30;99.90
14144;DHT22;7152;48.348;10.980;2022-12-07T08:09:09;2.30;99.90
14144;DHT22;7152;48.348;10.980;2022-12-07T08:11:35;2.20;99.90
14144;DHT22;7152;48.348;10.980;2022-12-07T08:14:02;2.20;99.90
14144;DHT22;7152;48.348;10.980;2022-12-07T08:16:27;2.20;99.90
14144;DHT22;7152;48.348;10.980;2022-12-07T08:18:53;2.10;99.90
14144;DHT22;7152;48.348;10.980;2022-12-07T08:21:19;2.10;99.90
14144;DHT22;7152;48.348;10.980;2022-12-07T08:23:44;2.20;99.90
14144;DHT22;7152;48.348;10.980;2022-12-07T08:26:13;2.10;99.90
14144;DHT22;7152;48.348;10.980;2022-12-07T08:28:39;2.10;99.90
14144;DHT22;7152;48.348;10.980;2022-12-07T08:31:11;2.00;99.90
14144;DHT22;7152;48.348;10.980;2022-12-07T08:33:38;2.00;99.90
14144;DHT22;7152;48.348;10.980;2022-12-07T08:36:09;2.10;99.90
14144;DHT22;7152;48.348;10.980;2022-12-07T08:38:36;2.10;99.90
14144;DHT22;7152;48.348;10.980;2022-12-07T08:41:03;2.10;99.90
14144;DHT22;7152;48.348;10.980;2022-12-07T08:43:29;2.10;99.90
14144;DHT22;7152;48.348;10.980;2022-12-07T08:49:18;2.10;99.90
14144;DHT22;7152;48.348;10.980;2022-12-07T08:51:45;2.20;99.90
14144;DHT22;7152;48.348;10.980;2022-12-07T08:54:15;2.10;99.90
14144;DHT22;7152;48.348;10.980;2022-12-07T08:56:41;2.20;99.90
14144;DHT22;7152;48.348;10.980;2022-12-07T08:59:07;2.20;99.90
14144;DHT22;7152;48.348;10.980;2022-12-07T09:01:33;2.10;99.90
14144;DHT22;7152;48.348;10.980;2022-12-07T09:03:59;2.10;99.90
14144;DHT22;7152;48.348;10.980;2022-12-07T09:06:25;2.20;99.90
14144;DHT22;7152;48.348;10.980;2022-12-07T09:08:54;2.20;99.90
14144;DHT22;7152;48.348;10.980;2022-12-07T09:11:20;2.20;99.90
14144;DHT22;7152;48.348;10.980;2022-12-07T09:13:46;2.30;99.90
14144;DHT22;7152;48.348;10.980;2022-12-07T09:16:11;2.30;99.90
14144;DHT22;7152;48.348;10.980;2022-12-07T09:18:38;2.30;99.90
14144;DHT22;7152;48.348;10.980;2022-12-07T09:21:04;2.40;99.90
14144;DHT22;7152;48.348;10.980;2022-12-07T09:23:30;2.50;99.90
14144;DHT22;7152;48.348;10.980;2022-12-07T09:25:59;2.50;99.90
14144;DHT22;7152;48.348;10.980;2022-12-07T09:28:26;2.60;99.90
14144;DHT22;7152;48.348;10.980;2022-12-07T09:30:51;2.60;99.90
14144;DHT22;7152;48.348;10.980;2022-12-07T09:33:17;2.70;99.90
14144;DHT22;7152;48.348;10.980;2022-12-07T09:35:46;2.70;99.90
14144;DHT22;7152;48.348;10.980;2022-12-07T09:38:12;2.80;99.90
14144;DHT22;7152;48.348;10.980;2022-12-07T09:40:38;2.80;99.90
14144;DHT22;7152;48.348;10.980;2022-12-07T09:43:04;2.90;99.90
14144;DHT22;7152;48.348;10.980;2022-12-07T09:45:35;3.00;99.90
14144;DHT22;7152;48.348;10.980;2022-12-07T09:48:03;3.10;99.90
14144;DHT22;7152;48.348;10.980;2022-12-07T09:50:29;3.10;99.90
14144;DHT22;7152;48.348;10.980;2022-12-07T09:53:11;3.20;99.90
14144;DHT22;7152;48.348;10.980;2022-12-07T09:55:40;3.30;99.90
14144;DHT22;7152;48.348;10.980;2022-12-07T09:58:16;3.50;99.90
14144;DHT22;7152;48.348;10.980;2022-12-07T10:00:44;3.60;99.90
14144;DHT22;7152;48.348;10.980;2022-12-07T10:03:11;3.70;99.90
14144;DHT22;7152;48.348;10.980;2022-12-07T10:05:44;3.90;99.90
14144;DHT22;7152;48.348;10.980;2022-12-07T10:08:14;4.00;99.90
14144;DHT22;7152;48.348;10.980;2022-12-07T10:10:41;4.20;99.90
14144;DHT22;7152;48.348;10.980;2022-12-07T10:13:13;4.40;99.90
14144;DHT22;7152;48.348;10.980;2022-12-07T10:21:10;4.90;99.90
14144;DHT22;7152;48.348;10.980;2022-12-07T10:23:38;5.00;99.90
14144;DHT22;7152;48.348;10.980;2022-12-07T10:26:28;5.20;99.90
14144;DHT22;7152;48.348;10.980;2022-12-07T10:28:55;5.40;99.90
14144;DHT22;7152;48.348;10.980;2022-12-07T10:31:23;5.50;99.90
14144;DHT22;7152;48.348;10.980;2022-12-07T10:34:00;5.70;99.90
14144;DHT22;7152;48.348;10.980;2022-12-07T10:41:29;5.10;99.90
14144;DHT22;7152;48.348;10.980;2022-12-07T10:43:57;6.50;99.90
14144;DHT22;7152;48.348;10.980;2022-12-07T10:52:01;6.70;99.90
14144;DHT22;7152;48.348;10.980;2022-12-07T11:00:10;6.50;99.90
14144;DHT22;7152;48.348;10.980;2022-12-07T11:06:39;6.40;99.90
14144;DHT22;7152;48.348;10.980;2022-12-07T11:08:58;6.40;99.90
14144;DHT22;7152;48.348;10.980;2022-12-07T11:11:48;6.30;99.90
14144;DHT22;7152;48.348;10.980;2022-12-07T11:14:25;6.10;99.90
14144;DHT22;7152;48.348;10.980;2022-12-07T11:17:01;6.00;99.90
14144;DHT22;7152;48.348;10.980;2022-12-07T11:22:15;5.80;99.90
14144;DHT22;7152;48.348;10.980;2022-12-07T11:25:13;5.80;99.90
14144;DHT22;7152;48.348;10.980;2022-12-07T11:30:27;5.70;99.90
14144;DHT22;7152;48.348;10.980;2022-12-07T11:38:57;5.80;99.90
14144;DHT22;7152;48.348;10.980;2022-12-07T11:41:28;5.80;99.90
14144;DHT22;7152;48.348;10.980;2022-12-07T11:44:17;6.90;99.90
14144;DHT22;7152;48.348;10.980;2022-12-07T11:49:27;5.90;99.90
14144;DHT22;7152;48.348;10.980;2022-12-07T11:51:59;5.90;99.90
14144;DHT22;7152;48.348;10.980;2022-12-07T11:54:31;5.90;99.90
14144;DHT22;7152;48.348;10.980;2022-12-07T11:57:03;5.80;99.90
14144;DHT22;7152;48.348;10.980;2022-12-07T11:59:38;5.80;99.90
14144;DHT22;7152;48.348;10.980;2022-12-07T12:02:24;5.90;99.90
14144;DHT22;7152;48.348;10.980;2022-12-07T12:07:40;5.90;99.90
14144;DHT22;7152;48.348;10.980;2022-12-07T12:15:19;5.80;99.90
14144;DHT22;7152;48.348;10.980;2022-12-07T12:18:07;5.80;99.90
14144;DHT22;7152;48.348;10.980;2022-12-07T12:21:01;5.80;99.90
14144;DHT22;7152;48.348;10.980;2022-12-07T12:26:05;5.80;99.90
14144;DHT22;7152;48.348;10.980;2022-12-07T12:29:00;5.80;99.90
14144;DHT22;7152;48.348;10.980;2022-12-07T12:33:58;5.70;99.90
14144;DHT22;7152;48.348;10.980;2022-12-07T12:36:42;5.70;99.90
14144;DHT22;7152;48.348;10.980;2022-12-07T12:47:38;5.70;99.90
14144;DHT22;7152;48.348;10.980;2022-12-07T12:50:20;5.70;99.90
14144;DHT22;7152;48.348;10.980;2022-12-07T12:53:04;5.60;99.90
14144;DHT22;7152;48.348;10.980;2022-12-07T13:00:44;5.80;99.90
14144;DHT22;7152;48.348;10.980;2022-12-07T13:03:24;5.80;99.90
14144;DHT22;7152;48.348;10.980;2022-12-07T13:08:49;5.70;99.90
14144;DHT22;7152;48.348;10.980;2022-12-07T13:11:25;5.70;99.90
14144;DHT22;7152;48.348;10.980;2022-12-07T13:16:58;5.60;99.90
14144;DHT22;7152;48.348;10.980;2022-12-07T13:22:41;5.50;99.90
14144;DHT22;7152;48.348;10.980;2022-12-07T13:25:35;5.50;99.90
14144;DHT22;7152;48.348;10.980;2022-12-07T13:28:23;5.50;99.90
14144;DHT22;7152;48.348;10.980;2022-12-07T13:31:14;5.40;99.90
14144;DHT22;7152;48.348;10.980;2022-12-07T13:33:45;5.40;99.90
14144;DHT22;7152;48.348;10.980;2022-12-07T13:36:37;5.30;99.90
14144;DHT22;7152;48.348;10.980;2022-12-07T13:41:43;5.30;99.90
14144;DHT22;7152;48.348;10.980;2022-12-07T13:44:14;5.30;99.90
14144;DHT22;7152;48.348;10.980;2022-12-07T13:49:33;5.20;99.90
14144;DHT22;7152;48.348;10.980;2022-12-07T13:52:19;5.20;99.90
14144;DHT22;7152;48.348;10.980;2022-12-07T13:54:54;5.20;99.90
14144;DHT22;7152;48.348;10.980;2022-12-07T13:57:21;5.20;99.90
14144;DHT22;7152;48.348;10.980;2022-12-07T13:59:47;5.20;99.90
14144;DHT22;7152;48.348;10.980;2022-12-07T14:02:28;5.20;99.90
14144;DHT22;7152;48.348;10.980;2022-12-07T14:07:33;5.10;99.90
14144;DHT22;7152;48.348;10.980;2022-12-07T14:10:01;5.20;99.90
14144;DHT22;7152;48.348;10.980;2022-12-07T14:12:29;5.20;99.90
14144;DHT22;7152;48.348;10.980;2022-12-07T14:14:56;5.10;99.90
14144;DHT22;7152;48.348;10.980;2022-12-07T14:17:24;5.10;99.90
14144;DHT22;7152;48.348;10.980;2022-12-07T14:22:36;5.00;99.90
14144;DHT22;7152;48.348;10.980;2022-12-07T14:25:23;4.90;99.90
14144;DHT22;7152;48.348;10.980;2022-12-07T14:27:56;4.90;99.90
14144;DHT22;7152;48.348;10.980;2022-12-07T14:30:23;4.90;99.90
14144;DHT22;7152;48.348;10.980;2022-12-07T14:32:55;4.90;99.90
14144;DHT22;7152;48.348;10.980;2022-12-07T14:35:22;4.90;99.90
14144;DHT22;7152;48.348;10.980;2022-12-07T14:37:48;4.90;99.90
14144;DHT22;7152;48.348;10.980;2022-12-07T14:40:17;4.90;99.90
14144;DHT22;7152;48.348;10.980;2022-12-07T14:42:44;5.00;99.90
14144;DHT22;7152;48.348;10.980;2022-12-07T14:45:14;4.90;99.90
14144;DHT22;7152;48.348;10.980;2022-12-07T14:47:40;4.90;99.90
14144;DHT22;7152;48.348;10.980;2022-12-07T14:50:06;4.90;99.90
14144;DHT22;7152;48.348;10.980;2022-12-07T14:52:33;4.90;99.90
14144;DHT22;7152;48.348;10.980;2022-12-07T14:54:58;4.80;99.90
14144;DHT22;7152;48.348;10.980;2022-12-07T14:57:24;4.80;99.90
14144;DHT22;7152;48.348;10.980;2022-12-07T14:59:50;4.80;99.90
14144;DHT22;7152;48.348;10.980;2022-12-07T15:02:16;4.70;99.90
14144;DHT22;7152;48.348;10.980;2022-12-07T15:04:42;4.60;99.90
14144;DHT22;7152;48.348;10.980;2022-12-07T15:07:18;4.50;99.90
14144;DHT22;7152;48.348;10.980;2022-12-07T15:09:45;4.50;99.90
14144;DHT22;7152;48.348;10.980;2022-12-07T15:12:11;4.40;99.90
14144;DHT22;7152;48.348;10.980;2022-12-07T15:14:36;4.40;99.90
14144;DHT22;7152;48.348;10.980;2022-12-07T15:17:02;4.30;99.90
14144;DHT22;7152;48.348;10.980;2022-12-07T15:19:28;4.40;99.90
14144;DHT22;7152;48.348;10.980;2022-12-07T15:21:54;4.30;99.90
14144;DHT22;7152;48.348;10.980;2022-12-07T15:24:20;4.30;99.90
14144;DHT22;7152;48.348;10.980;2022-12-07T15:26:46;4.30;99.90
14144;DHT22;7152;48.348;10.980;2022-12-07T15:29:13;4.20;99.90
14144;DHT22;7152;48.348;10.980;2022-12-07T15:31:40;4.20;99.90
14144;DHT22;7152;48.348;10.980;2022-12-07T15:34:05;4.20;99.90
14144;DHT22;7152;48.348;10.980;2022-12-07T15:36:33;4.10;99.90
14144;DHT22;7152;48.348;10.980;2022-12-07T15:38:59;4.10;99.90
14144;DHT22;7152;48.348;10.980;2022-12-07T15:41:26;4.00;99.90
14144;DHT22;7152;48.348;10.980;2022-12-07T15:43:52;3.20;99.90
14144;DHT22;7152;48.348;10.980;2022-12-07T15:46:38;3.90;99.90
14144;DHT22;7152;48.348;10.980;2022-12-07T15:49:09;3.90;99.90
14144;DHT22;7152;48.348;10.980;2022-12-07T15:51:35;3.90;99.90
14144;DHT22;7152;48.348;10.980;2022-12-07T15:54:01;3.80;99.90
14144;DHT22;7152;48.348;10.980;2022-12-07T15:56:26;3.80;99.90
14144;DHT22;7152;48.348;10.980;2022-12-07T15:58:52;3.80;99.90
14144;DHT22;7152;48.348;10.980;2022-12-07T16:01:18;3.70;99.90
14144;DHT22;7152;48.348;10.980;2022-12-07T16:03:45;3.70;99.90
14144;DHT22;7152;48.348;10.980;2022-12-07T16:06:11;3.70;99.90
14144;DHT22;7152;48.348;10.980;2022-12-07T16:08:42;3.60;99.90
14144;DHT22;7152;48.348;10.980;2022-12-07T16:11:08;3.50;99.90
14144;DHT22;7152;48.348;10.980;2022-12-07T16:13:34;3.50;99.90
14144;DHT22;7152;48.348;10.980;2022-12-07T16:16:08;3.40;99.90
14144;DHT22;7152;48.348;10.980;2022-12-07T16:18:35;3.20;99.90
14144;DHT22;7152;48.348;10.980;2022-12-07T16:21:01;3.20;99.90
14144;DHT22;7152;48.348;10.980;2022-12-07T16:23:27;3.20;99.90
14144;DHT22;7152;48.348;10.980;2022-12-07T16:25:53;3.10;99.90
14144;DHT22;7152;48.348;10.980;2022-12-07T16:28:18;3.00;99.90
14144;DHT22;7152;48.348;10.980;2022-12-07T16:30:44;3.10;99.90
14144;DHT22;7152;48.348;10.980;2022-12-07T16:33:10;3.00;99.90
14144;DHT22;7152;48.348;10.980;2022-12-07T16:35:39;2.90;99.90
14144;DHT22;7152;48.348;10.980;2022-12-07T16:38:09;2.90;99.90
14144;DHT22;7152;48.348;10.980;2022-12-07T16:40:34;2.90;99.90
14144;DHT22;7152;48.348;10.980;2022-12-07T16:43:00;2.90;99.90
14144;DHT22;7152;48.348;10.980;2022-12-07T16:45:26;2.90;99.90
14144;DHT22;7152;48.348;10.980;2022-12-07T16:47:51;2.80;99.90
14144;DHT22;7152;48.348;10.980;2022-12-07T16:50:17;2.70;99.90
14144;DHT22;7152;48.348;10.980;2022-12-07T16:52:43;2.70;99.90
14144;DHT22;7152;48.348;10.980;2022-12-07T16:55:09;2.60;99.90
14144;DHT22;7152;48.348;10.980;2022-12-07T16:57:34;2.60;99.90
14144;DHT22;7152;48.348;10.980;2022-12-07T17:00:00;2.60;99.90
14144;DHT22;7152;48.348;10.980;2022-12-07T17:02:25;2.60;99.90
14144;DHT22;7152;48.348;10.980;2022-12-07T17:04:52;2.60;99.90
14144;DHT22;7152;48.348;10.980;2022-12-07T17:07:17;2.50;99.90
14144;DHT22;7152;48.348;10.980;2022-12-07T17:09:43;2.40;99.90
14144;DHT22;7152;48.348;10.980;2022-12-07T17:12:09;2.40;99.90
14144;DHT22;7152;48.348;10.980;2022-12-07T17:14:35;2.30;99.90
14144;DHT22;7152;48.348;10.980;2022-12-07T17:17:19;2.30;99.90
14144;DHT22;7152;48.348;10.980;2022-12-07T17:19:45;2.10;99.90
14144;DHT22;7152;48.348;10.980;2022-12-07T17:22:11;2.00;99.90
14144;DHT22;7152;48.348;10.980;2022-12-07T17:24:38;2.00;99.90
14144;DHT22;7152;48.348;10.980;2022-12-07T17:27:04;1.90;99.90
14144;DHT22;7152;48.348;10.980;2022-12-07T17:29:29;1.90;99.90
14144;DHT22;7152;48.348;10.980;2022-12-07T17:31:55;1.80;99.90
14144;DHT22;7152;48.348;10.980;2022-12-07T17:34:21;1.80;99.90
14144;DHT22;7152;48.348;10.980;2022-12-07T17:36:46;1.70;99.90
14144;DHT22;7152;48.348;10.980;2022-12-07T17:39:15;1.70;99.90
14144;DHT22;7152;48.348;10.980;2022-12-07T17:41:41;1.80;99.90
14144;DHT22;7152;48.348;10.980;2022-12-07T17:44:27;1.70;99.90
14144;DHT22;7152;48.348;10.980;2022-12-07T17:46:53;1.70;99.90
14144;DHT22;7152;48.348;10.980;2022-12-07T17:49:27;1.70;99.90
14144;DHT22;7152;48.348;10.980;2022-12-07T17:51:53;1.70;99.90
14144;DHT22;7152;48.348;10.980;2022-12-07T17:54:37;1.70;99.90
14144;DHT22;7152;48.348;10.980;2022-12-07T17:57:03;1.50;99.90
14144;DHT22;7152;48.348;10.980;2022-12-07T17:59:28;1.50;99.90
14144;DHT22;7152;48.348;10.980;2022-12-07T18:01:54;1.40;99.90
14144;DHT22;7152;48.348;10.980;2022-12-07T18:04:20;1.40;99.90